Terminal Aerodrome Forecast
Issued by NWS

Home | Current Version | Previous Version | Text Only | Print | Product List | Glossary On
Versions: 1 2 3 4 5 6 7 8 9 10 11 12 13 14
000
FTUS44 KOUN 162320
TAFCSM
TAF
KCSM 162320Z 1700/1724 14013KT P6SM SCT100 BKN250
     FM171200 06012KT 5SM -RA SCT015 BKN025
     FM171800 03011KT P6SM BKN015 OVC025 PROB30 1718/1720 6SM -RA
      OVC015=

USA.gov is the U.S. government's official web portal to all federal, state and local government web resources and services.